Runnells, Iowa
Current Conditions -  °F | °C
As of 12:54 AM on Monday 22 Dec 2014 (Local Time) from KDSM Reporting Station
Light Rain Light Rain  
Wind Chill: 35°   Ceiling: 800
Heat Index: 42°   Visibility: 4mi
Dew Point: 39°   Wind: 15mph
Humidity: 89%   Direction: 160°SSE
Pressure: 29.73"   Gusts: NA
Location:  41.51°N, 93.36°W
Report Text: KDSM 220654Z 16013KT 4SM -RA BR OVC008 06/04 A2973 RMK AO2 CIG 006V011 SLP073 P0002 T00560039
Loading
Personal Weather Stations






























Interactive Weather Map New forecast layout! Learn more

10-Day Weather Forecast

Advertisements
Track Severe Weather on mobile